sensor_id;sensor_type;location;lat;lon;timestamp;P1;durP1;ratioP1;P2;durP2;ratioP2
12286;SDS011;6206;53.100;11.098;2022-09-09T00:01:49;25.33;;;12.00;;
12286;SDS011;6206;53.100;11.098;2022-09-09T00:04:23;31.23;;;12.40;;
12286;SDS011;6206;53.100;11.098;2022-09-09T00:06:59;29.65;;;12.07;;
12286;SDS011;6206;53.100;11.098;2022-09-09T00:09:31;27.50;;;12.50;;
12286;SDS011;6206;53.100;11.098;2022-09-09T00:12:06;30.47;;;12.07;;
12286;SDS011;6206;53.100;11.098;2022-09-09T00:14:41;26.25;;;11.45;;
12286;SDS011;6206;53.100;11.098;2022-09-09T00:17:23;43.80;;;12.30;;
12286;SDS011;6206;53.100;11.098;2022-09-09T00:19:59;38.20;;;12.75;;
12286;SDS011;6206;53.100;11.098;2022-09-09T00:22:29;30.50;;;11.85;;
12286;SDS011;6206;53.100;11.098;2022-09-09T00:25:00;37.25;;;12.10;;
12286;SDS011;6206;53.100;11.098;2022-09-09T00:27:36;52.28;;;13.15;;
12286;SDS011;6206;53.100;11.098;2022-09-09T00:30:16;45.38;;;12.48;;
12286;SDS011;6206;53.100;11.098;2022-09-09T00:32:47;32.47;;;12.35;;
12286;SDS011;6206;53.100;11.098;2022-09-09T00:35:16;51.22;;;12.95;;
12286;SDS011;6206;53.100;11.098;2022-09-09T00:37:47;37.40;;;12.38;;
12286;SDS011;6206;53.100;11.098;2022-09-09T00:40:18;43.42;;;12.35;;
12286;SDS011;6206;53.100;11.098;2022-09-09T00:42:52;27.35;;;12.43;;
12286;SDS011;6206;53.100;11.098;2022-09-09T00:45:38;30.95;;;12.77;;
12286;SDS011;6206;53.100;11.098;2022-09-09T00:48:33;31.83;;;12.98;;
12286;SDS011;6206;53.100;11.098;2022-09-09T00:51:08;33.60;;;13.63;;
12286;SDS011;6206;53.100;11.098;2022-09-09T00:53:51;33.38;;;13.82;;
12286;SDS011;6206;53.100;11.098;2022-09-09T00:56:29;31.63;;;14.15;;
12286;SDS011;6206;53.100;11.098;2022-09-09T00:59:08;32.67;;;13.75;;
12286;SDS011;6206;53.100;11.098;2022-09-09T01:01:49;33.58;;;14.05;;
12286;SDS011;6206;53.100;11.098;2022-09-09T01:04:23;27.60;;;13.30;;
12286;SDS011;6206;53.100;11.098;2022-09-09T01:06:58;27.08;;;13.65;;
12286;SDS011;6206;53.100;11.098;2022-09-09T01:09:34;28.60;;;13.30;;
12286;SDS011;6206;53.100;11.098;2022-09-09T01:12:09;26.52;;;13.43;;
12286;SDS011;6206;53.100;11.098;2022-09-09T01:14:42;26.10;;;13.30;;
12286;SDS011;6206;53.100;11.098;2022-09-09T01:17:15;24.60;;;12.83;;
12286;SDS011;6206;53.100;11.098;2022-09-09T01:19:54;26.17;;;13.15;;
12286;SDS011;6206;53.100;11.098;2022-09-09T01:22:29;28.45;;;13.52;;
12286;SDS011;6206;53.100;11.098;2022-09-09T01:25:18;27.95;;;13.52;;
12286;SDS011;6206;53.100;11.098;2022-09-09T01:27:52;26.48;;;13.70;;
12286;SDS011;6206;53.100;11.098;2022-09-09T01:30:22;24.03;;;13.13;;
12286;SDS011;6206;53.100;11.098;2022-09-09T01:32:50;25.30;;;13.75;;
12286;SDS011;6206;53.100;11.098;2022-09-09T01:35:22;27.55;;;13.50;;
12286;SDS011;6206;53.100;11.098;2022-09-09T01:37:59;27.63;;;14.27;;
12286;SDS011;6206;53.100;11.098;2022-09-09T01:40:26;33.95;;;13.43;;
12286;SDS011;6206;53.100;11.098;2022-09-09T01:42:54;25.30;;;13.13;;
12286;SDS011;6206;53.100;11.098;2022-09-09T01:45:22;28.85;;;13.30;;
12286;SDS011;6206;53.100;11.098;2022-09-09T01:47:50;28.73;;;12.77;;
12286;SDS011;6206;53.100;11.098;2022-09-09T01:50:18;27.85;;;12.20;;
12286;SDS011;6206;53.100;11.098;2022-09-09T01:52:46;26.70;;;13.32;;
12286;SDS011;6206;53.100;11.098;2022-09-09T01:55:16;26.83;;;12.65;;
12286;SDS011;6206;53.100;11.098;2022-09-09T01:57:48;26.20;;;12.13;;
12286;SDS011;6206;53.100;11.098;2022-09-09T02:00:22;32.13;;;12.30;;
12286;SDS011;6206;53.100;11.098;2022-09-09T02:02:53;27.10;;;11.18;;
12286;SDS011;6206;53.100;11.098;2022-09-09T02:05:30;29.75;;;10.70;;
12286;SDS011;6206;53.100;11.098;2022-09-09T02:08:03;23.10;;;10.75;;
12286;SDS011;6206;53.100;11.098;2022-09-09T02:10:36;21.50;;;10.77;;
12286;SDS011;6206;53.100;11.098;2022-09-09T02:13:09;22.83;;;10.20;;
12286;SDS011;6206;53.100;11.098;2022-09-09T02:15:42;19.02;;;9.88;;
12286;SDS011;6206;53.100;11.098;2022-09-09T02:18:13;33.95;;;10.77;;
12286;SDS011;6206;53.100;11.098;2022-09-09T02:20:43;21.80;;;10.00;;
12286;SDS011;6206;53.100;11.098;2022-09-09T02:23:12;21.75;;;10.68;;
12286;SDS011;6206;53.100;11.098;2022-09-09T02:25:40;22.05;;;10.35;;
12286;SDS011;6206;53.100;11.098;2022-09-09T02:28:09;21.48;;;10.55;;
12286;SDS011;6206;53.100;11.098;2022-09-09T02:30:40;25.17;;;9.65;;
12286;SDS011;6206;53.100;11.098;2022-09-09T02:33:08;22.65;;;9.55;;
12286;SDS011;6206;53.100;11.098;2022-09-09T02:35:38;16.13;;;9.10;;
12286;SDS011;6206;53.100;11.098;2022-09-09T02:38:06;26.23;;;9.68;;
12286;SDS011;6206;53.100;11.098;2022-09-09T02:40:36;30.88;;;10.13;;
12286;SDS011;6206;53.100;11.098;2022-09-09T02:43:03;21.83;;;9.30;;
12286;SDS011;6206;53.100;11.098;2022-09-09T02:45:31;22.73;;;9.65;;
12286;SDS011;6206;53.100;11.098;2022-09-09T02:48:07;20.85;;;8.65;;
12286;SDS011;6206;53.100;11.098;2022-09-09T02:50:41;27.02;;;10.15;;
12286;SDS011;6206;53.100;11.098;2022-09-09T02:53:19;26.63;;;10.23;;
12286;SDS011;6206;53.100;11.098;2022-09-09T02:55:51;22.85;;;10.10;;
12286;SDS011;6206;53.100;11.098;2022-09-09T02:58:23;25.67;;;9.63;;
12286;SDS011;6206;53.100;11.098;2022-09-09T03:00:51;29.77;;;9.70;;
12286;SDS011;6206;53.100;11.098;2022-09-09T03:03:19;18.10;;;10.05;;
12286;SDS011;6206;53.100;11.098;2022-09-09T03:05:47;17.80;;;9.10;;
12286;SDS011;6206;53.100;11.098;2022-09-09T03:08:14;19.13;;;9.10;;
12286;SDS011;6206;53.100;11.098;2022-09-09T03:10:42;16.45;;;8.82;;
12286;SDS011;6206;53.100;11.098;2022-09-09T03:13:09;16.70;;;8.77;;
12286;SDS011;6206;53.100;11.098;2022-09-09T03:15:37;19.10;;;9.10;;
12286;SDS011;6206;53.100;11.098;2022-09-09T03:18:04;16.75;;;9.23;;
12286;SDS011;6206;53.100;11.098;2022-09-09T03:20:33;16.97;;;8.53;;
12286;SDS011;6206;53.100;11.098;2022-09-09T03:23:00;15.38;;;8.68;;
12286;SDS011;6206;53.100;11.098;2022-09-09T03:25:27;14.52;;;8.57;;
12286;SDS011;6206;53.100;11.098;2022-09-09T03:27:55;15.07;;;8.82;;
12286;SDS011;6206;53.100;11.098;2022-09-09T03:30:22;13.55;;;8.52;;
12286;SDS011;6206;53.100;11.098;2022-09-09T03:32:50;14.57;;;8.50;;
12286;SDS011;6206;53.100;11.098;2022-09-09T03:35:17;11.98;;;7.93;;
12286;SDS011;6206;53.100;11.098;2022-09-09T03:37:45;12.93;;;7.75;;
12286;SDS011;6206;53.100;11.098;2022-09-09T03:40:12;12.88;;;8.35;;
12286;SDS011;6206;53.100;11.098;2022-09-09T03:42:39;12.50;;;8.00;;
12286;SDS011;6206;53.100;11.098;2022-09-09T03:45:07;12.93;;;7.90;;
12286;SDS011;6206;53.100;11.098;2022-09-09T03:47:35;13.23;;;7.78;;
12286;SDS011;6206;53.100;11.098;2022-09-09T03:50:02;13.13;;;7.90;;
12286;SDS011;6206;53.100;11.098;2022-09-09T03:52:33;12.63;;;7.72;;
12286;SDS011;6206;53.100;11.098;2022-09-09T03:55:02;12.52;;;7.38;;
12286;SDS011;6206;53.100;11.098;2022-09-09T03:57:29;12.88;;;7.75;;
12286;SDS011;6206;53.100;11.098;2022-09-09T03:59:56;12.02;;;7.88;;
12286;SDS011;6206;53.100;11.098;2022-09-09T04:02:25;12.27;;;7.77;;
12286;SDS011;6206;53.100;11.098;2022-09-09T04:04:52;11.40;;;7.55;;
12286;SDS011;6206;53.100;11.098;2022-09-09T04:07:19;13.10;;;8.02;;
12286;SDS011;6206;53.100;11.098;2022-09-09T04:09:46;14.00;;;7.82;;
12286;SDS011;6206;53.100;11.098;2022-09-09T04:12:14;12.88;;;7.78;;
12286;SDS011;6206;53.100;11.098;2022-09-09T04:14:41;11.80;;;7.72;;
12286;SDS011;6206;53.100;11.098;2022-09-09T04:17:08;10.80;;;7.30;;
12286;SDS011;6206;53.100;11.098;2022-09-09T04:19:35;12.30;;;7.60;;
12286;SDS011;6206;53.100;11.098;2022-09-09T04:22:01;11.68;;;7.50;;
12286;SDS011;6206;53.100;11.098;2022-09-09T04:24:28;9.10;;;6.38;;
12286;SDS011;6206;53.100;11.098;2022-09-09T04:26:55;9.38;;;6.50;;
12286;SDS011;6206;53.100;11.098;2022-09-09T04:29:23;10.27;;;6.78;;
12286;SDS011;6206;53.100;11.098;2022-09-09T04:31:49;12.07;;;7.20;;
12286;SDS011;6206;53.100;11.098;2022-09-09T04:34:16;11.35;;;7.72;;
12286;SDS011;6206;53.100;11.098;2022-09-09T04:36:42;10.45;;;6.72;;
12286;SDS011;6206;53.100;11.098;2022-09-09T04:39:09;10.97;;;7.17;;
12286;SDS011;6206;53.100;11.098;2022-09-09T04:41:36;12.95;;;7.45;;
12286;SDS011;6206;53.100;11.098;2022-09-09T04:44:02;10.35;;;6.80;;
12286;SDS011;6206;53.100;11.098;2022-09-09T04:46:30;10.27;;;6.87;;
12286;SDS011;6206;53.100;11.098;2022-09-09T04:48:59;11.98;;;6.82;;
12286;SDS011;6206;53.100;11.098;2022-09-09T04:51:26;9.27;;;5.97;;
12286;SDS011;6206;53.100;11.098;2022-09-09T04:53:53;9.13;;;6.53;;
12286;SDS011;6206;53.100;11.098;2022-09-09T04:56:19;9.17;;;6.33;;
12286;SDS011;6206;53.100;11.098;2022-09-09T04:58:46;11.07;;;6.75;;
12286;SDS011;6206;53.100;11.098;2022-09-09T05:01:13;9.95;;;6.30;;
12286;SDS011;6206;53.100;11.098;2022-09-09T05:03:43;9.63;;;6.30;;
12286;SDS011;6206;53.100;11.098;2022-09-09T05:06:11;11.03;;;6.23;;
12286;SDS011;6206;53.100;11.098;2022-09-09T05:08:40;8.27;;;6.30;;
12286;SDS011;6206;53.100;11.098;2022-09-09T05:11:14;9.80;;;6.25;;
12286;SDS011;6206;53.100;11.098;2022-09-09T05:13:43;8.13;;;5.72;;
12286;SDS011;6206;53.100;11.098;2022-09-09T05:16:10;9.43;;;5.95;;
12286;SDS011;6206;53.100;11.098;2022-09-09T05:18:37;9.88;;;5.78;;
12286;SDS011;6206;53.100;11.098;2022-09-09T05:21:05;8.63;;;6.03;;
12286;SDS011;6206;53.100;11.098;2022-09-09T05:23:33;9.83;;;6.30;;
12286;SDS011;6206;53.100;11.098;2022-09-09T05:26:00;8.43;;;6.28;;
12286;SDS011;6206;53.100;11.098;2022-09-09T05:28:28;7.93;;;6.00;;
12286;SDS011;6206;53.100;11.098;2022-09-09T05:30:56;9.83;;;6.30;;
12286;SDS011;6206;53.100;11.098;2022-09-09T05:33:23;11.20;;;7.15;;
12286;SDS011;6206;53.100;11.098;2022-09-09T05:35:54;8.73;;;6.05;;
12286;SDS011;6206;53.100;11.098;2022-09-09T05:38:23;8.18;;;6.15;;
12286;SDS011;6206;53.100;11.098;2022-09-09T05:40:51;8.50;;;5.80;;
12286;SDS011;6206;53.100;11.098;2022-09-09T05:43:18;8.45;;;5.80;;
12286;SDS011;6206;53.100;11.098;2022-09-09T05:45:45;9.00;;;6.28;;
12286;SDS011;6206;53.100;11.098;2022-09-09T05:48:12;8.33;;;5.40;;
12286;SDS011;6206;53.100;11.098;2022-09-09T05:50:40;9.52;;;5.85;;
12286;SDS011;6206;53.100;11.098;2022-09-09T05:53:07;7.32;;;5.70;;
12286;SDS011;6206;53.100;11.098;2022-09-09T05:55:36;10.77;;;6.23;;
12286;SDS011;6206;53.100;11.098;2022-09-09T05:58:02;9.23;;;6.15;;
12286;SDS011;6206;53.100;11.098;2022-09-09T06:00:29;8.60;;;5.95;;
12286;SDS011;6206;53.100;11.098;2022-09-09T06:02:57;9.23;;;5.90;;
12286;SDS011;6206;53.100;11.098;2022-09-09T06:05:23;10.20;;;6.57;;
12286;SDS011;6206;53.100;11.098;2022-09-09T06:07:53;8.68;;;6.18;;
12286;SDS011;6206;53.100;11.098;2022-09-09T06:10:20;8.67;;;6.13;;
12286;SDS011;6206;53.100;11.098;2022-09-09T06:12:49;10.45;;;6.60;;
12286;SDS011;6206;53.100;11.098;2022-09-09T06:15:18;10.02;;;6.60;;
12286;SDS011;6206;53.100;11.098;2022-09-09T06:17:45;10.25;;;6.40;;
12286;SDS011;6206;53.100;11.098;2022-09-09T06:20:12;9.93;;;7.30;;
12286;SDS011;6206;53.100;11.098;2022-09-09T06:22:39;9.23;;;6.63;;
12286;SDS011;6206;53.100;11.098;2022-09-09T06:25:07;8.10;;;6.00;;
12286;SDS011;6206;53.100;11.098;2022-09-09T06:27:34;9.73;;;6.40;;
12286;SDS011;6206;53.100;11.098;2022-09-09T06:30:02;9.60;;;5.93;;
12286;SDS011;6206;53.100;11.098;2022-09-09T06:32:29;8.80;;;6.03;;
12286;SDS011;6206;53.100;11.098;2022-09-09T06:35:01;8.00;;;5.90;;
12286;SDS011;6206;53.100;11.098;2022-09-09T06:37:28;8.40;;;6.25;;
12286;SDS011;6206;53.100;11.098;2022-09-09T06:39:55;9.30;;;6.18;;
12286;SDS011;6206;53.100;11.098;2022-09-09T06:42:21;9.50;;;6.60;;
12286;SDS011;6206;53.100;11.098;2022-09-09T06:44:48;8.97;;;7.00;;
12286;SDS011;6206;53.100;11.098;2022-09-09T06:47:16;9.18;;;6.43;;
12286;SDS011;6206;53.100;11.098;2022-09-09T06:49:43;8.93;;;6.37;;
12286;SDS011;6206;53.100;11.098;2022-09-09T06:52:09;9.57;;;5.93;;
12286;SDS011;6206;53.100;11.098;2022-09-09T06:54:36;9.05;;;5.82;;
12286;SDS011;6206;53.100;11.098;2022-09-09T06:57:03;8.48;;;6.18;;
12286;SDS011;6206;53.100;11.098;2022-09-09T06:59:32;7.80;;;5.88;;
12286;SDS011;6206;53.100;11.098;2022-09-09T07:01:58;9.68;;;5.03;;
12286;SDS011;6206;53.100;11.098;2022-09-09T07:04:27;7.20;;;5.20;;
12286;SDS011;6206;53.100;11.098;2022-09-09T07:06:54;6.63;;;4.65;;
12286;SDS011;6206;53.100;11.098;2022-09-09T07:09:20;7.72;;;4.78;;
12286;SDS011;6206;53.100;11.098;2022-09-09T07:11:48;5.65;;;4.70;;
12286;SDS011;6206;53.100;11.098;2022-09-09T07:14:15;6.13;;;4.72;;
12286;SDS011;6206;53.100;11.098;2022-09-09T07:16:43;5.82;;;4.32;;
12286;SDS011;6206;53.100;11.098;2022-09-09T07:19:10;8.85;;;4.32;;
12286;SDS011;6206;53.100;11.098;2022-09-09T07:21:40;6.50;;;4.32;;
12286;SDS011;6206;53.100;11.098;2022-09-09T07:24:07;8.65;;;4.57;;
12286;SDS011;6206;53.100;11.098;2022-09-09T07:26:35;8.77;;;4.70;;
12286;SDS011;6206;53.100;11.098;2022-09-09T07:29:03;6.32;;;4.15;;
12286;SDS011;6206;53.100;11.098;2022-09-09T07:31:30;6.95;;;4.25;;
12286;SDS011;6206;53.100;11.098;2022-09-09T07:33:59;4.55;;;3.35;;
12286;SDS011;6206;53.100;11.098;2022-09-09T07:36:26;6.50;;;3.72;;
12286;SDS011;6206;53.100;11.098;2022-09-09T07:38:56;8.07;;;4.32;;
12286;SDS011;6206;53.100;11.098;2022-09-09T07:41:25;6.88;;;3.78;;
12286;SDS011;6206;53.100;11.098;2022-09-09T07:43:53;5.97;;;4.05;;
12286;SDS011;6206;53.100;11.098;2022-09-09T07:46:21;7.23;;;4.53;;
12286;SDS011;6206;53.100;11.098;2022-09-09T07:48:49;7.45;;;4.68;;
12286;SDS011;6206;53.100;11.098;2022-09-09T07:51:18;6.78;;;4.43;;
12286;SDS011;6206;53.100;11.098;2022-09-09T07:53:47;5.28;;;3.92;;
12286;SDS011;6206;53.100;11.098;2022-09-09T07:56:16;8.52;;;4.40;;
12286;SDS011;6206;53.100;11.098;2022-09-09T07:58:47;5.90;;;4.18;;
12286;SDS011;6206;53.100;11.098;2022-09-09T08:01:15;4.95;;;3.60;;
12286;SDS011;6206;53.100;11.098;2022-09-09T08:03:44;6.15;;;3.97;;
12286;SDS011;6206;53.100;11.098;2022-09-09T08:06:11;6.78;;;4.38;;
12286;SDS011;6206;53.100;11.098;2022-09-09T08:08:39;7.60;;;4.45;;
12286;SDS011;6206;53.100;11.098;2022-09-09T08:11:09;6.65;;;4.32;;
12286;SDS011;6206;53.100;11.098;2022-09-09T08:13:38;6.65;;;4.15;;
12286;SDS011;6206;53.100;11.098;2022-09-09T08:16:06;6.65;;;4.20;;
12286;SDS011;6206;53.100;11.098;2022-09-09T08:18:35;7.45;;;4.05;;
12286;SDS011;6206;53.100;11.098;2022-09-09T08:21:06;10.30;;;4.90;;
12286;SDS011;6206;53.100;11.098;2022-09-09T08:23:36;7.13;;;4.28;;
12286;SDS011;6206;53.100;11.098;2022-09-09T08:26:04;6.50;;;3.88;;
12286;SDS011;6206;53.100;11.098;2022-09-09T08:28:34;6.28;;;3.80;;
12286;SDS011;6206;53.100;11.098;2022-09-09T08:31:09;6.05;;;3.88;;
12286;SDS011;6206;53.100;11.098;2022-09-09T08:33:38;5.63;;;3.28;;
12286;SDS011;6206;53.100;11.098;2022-09-09T08:36:08;4.80;;;3.67;;
12286;SDS011;6206;53.100;11.098;2022-09-09T08:38:36;6.10;;;3.22;;
12286;SDS011;6206;53.100;11.098;2022-09-09T08:44:02;5.13;;;3.00;;
12286;SDS011;6206;53.100;11.098;2022-09-09T08:46:35;5.30;;;3.40;;
12286;SDS011;6206;53.100;11.098;2022-09-09T08:49:13;6.20;;;3.15;;
12286;SDS011;6206;53.100;11.098;2022-09-09T08:51:52;6.28;;;3.90;;
12286;SDS011;6206;53.100;11.098;2022-09-09T08:54:21;4.78;;;2.90;;
12286;SDS011;6206;53.100;11.098;2022-09-09T08:56:48;4.90;;;3.05;;
12286;SDS011;6206;53.100;11.098;2022-09-09T08:59:16;10.00;;;2.88;;
12286;SDS011;6206;53.100;11.098;2022-09-09T09:01:52;7.47;;;3.00;;
12286;SDS011;6206;53.100;11.098;2022-09-09T09:04:29;5.93;;;3.00;;
12286;SDS011;6206;53.100;11.098;2022-09-09T09:07:06;3.65;;;2.63;;
12286;SDS011;6206;53.100;11.098;2022-09-09T09:09:43;4.75;;;2.60;;
12286;SDS011;6206;53.100;11.098;2022-09-09T09:12:15;4.22;;;2.47;;
12286;SDS011;6206;53.100;11.098;2022-09-09T09:14:44;4.50;;;2.70;;
12286;SDS011;6206;53.100;11.098;2022-09-09T09:17:15;4.13;;;2.70;;
12286;SDS011;6206;53.100;11.098;2022-09-09T09:37:07;4.65;;;2.33;;
12286;SDS011;6206;53.100;11.098;2022-09-09T09:39:42;3.25;;;2.00;;
12286;SDS011;6206;53.100;11.098;2022-09-09T09:42:09;3.45;;;2.00;;
12286;SDS011;6206;53.100;11.098;2022-09-09T09:44:38;3.25;;;1.80;;
12286;SDS011;6206;53.100;11.098;2022-09-09T09:47:07;3.25;;;1.80;;
12286;SDS011;6206;53.100;11.098;2022-09-09T09:49:38;6.10;;;1.67;;
12286;SDS011;6206;53.100;11.098;2022-09-09T09:52:06;3.55;;;2.20;;
12286;SDS011;6206;53.100;11.098;2022-09-09T09:54:41;2.95;;;1.90;;
12286;SDS011;6206;53.100;11.098;2022-09-09T09:57:09;6.40;;;1.60;;
12286;SDS011;6206;53.100;11.098;2022-09-09T09:59:37;2.75;;;1.25;;
12286;SDS011;6206;53.100;11.098;2022-09-09T10:02:15;4.20;;;1.20;;
12286;SDS011;6206;53.100;11.098;2022-09-09T10:04:45;3.20;;;1.60;;
12286;SDS011;6206;53.100;11.098;2022-09-09T10:07:12;4.05;;;1.45;;
12286;SDS011;6206;53.100;11.098;2022-09-09T10:09:43;1.88;;;1.30;;
12286;SDS011;6206;53.100;11.098;2022-09-09T10:12:14;6.03;;;1.30;;
12286;SDS011;6206;53.100;11.098;2022-09-09T10:14:51;2.63;;;1.50;;
12286;SDS011;6206;53.100;11.098;2022-09-09T10:17:23;2.67;;;1.55;;
12286;SDS011;6206;53.100;11.098;2022-09-09T10:20:01;5.05;;;1.30;;
12286;SDS011;6206;53.100;11.098;2022-09-09T10:22:43;4.10;;;1.30;;
12286;SDS011;6206;53.100;11.098;2022-09-09T10:25:27;2.67;;;1.35;;
12286;SDS011;6206;53.100;11.098;2022-09-09T10:28:10;2.67;;;1.40;;
12286;SDS011;6206;53.100;11.098;2022-09-09T10:31:08;5.43;;;1.50;;
12286;SDS011;6206;53.100;11.098;2022-09-09T10:33:45;3.78;;;1.67;;
12286;SDS011;6206;53.100;11.098;2022-09-09T10:36:19;4.65;;;2.53;;
12286;SDS011;6206;53.100;11.098;2022-09-09T10:38:47;3.08;;;2.13;;
12286;SDS011;6206;53.100;11.098;2022-09-09T10:41:24;3.05;;;1.95;;
12286;SDS011;6206;53.100;11.098;2022-09-09T10:44:12;2.70;;;1.40;;
12286;SDS011;6206;53.100;11.098;2022-09-09T10:46:53;2.67;;;1.60;;
12286;SDS011;6206;53.100;11.098;2022-09-09T10:49:40;3.30;;;1.20;;
12286;SDS011;6206;53.100;11.098;2022-09-09T10:52:21;7.47;;;5.60;;
12286;SDS011;6206;53.100;11.098;2022-09-09T10:54:56;11.00;;;5.20;;
12286;SDS011;6206;53.100;11.098;2022-09-09T10:57:27;3.10;;;1.42;;
12286;SDS011;6206;53.100;11.098;2022-09-09T11:00:01;4.03;;;1.40;;
12286;SDS011;6206;53.100;11.098;2022-09-09T11:02:31;2.60;;;1.27;;
12286;SDS011;6206;53.100;11.098;2022-09-09T11:05:00;3.40;;;1.23;;
12286;SDS011;6206;53.100;11.098;2022-09-09T11:07:33;1.20;;;1.10;;
12286;SDS011;6206;53.100;11.098;2022-09-09T11:10:05;3.95;;;1.20;;
12286;SDS011;6206;53.100;11.098;2022-09-09T11:12:42;3.10;;;1.42;;
12286;SDS011;6206;53.100;11.098;2022-09-09T11:15:14;3.03;;;1.88;;
12286;SDS011;6206;53.100;11.098;2022-09-09T11:17:44;3.15;;;1.55;;
12286;SDS011;6206;53.100;11.098;2022-09-09T11:20:15;5.30;;;1.40;;
12286;SDS011;6206;53.100;11.098;2022-09-09T11:22:45;4.03;;;1.50;;
12286;SDS011;6206;53.100;11.098;2022-09-09T11:25:17;3.55;;;1.38;;
12286;SDS011;6206;53.100;11.098;2022-09-09T11:27:54;8.05;;;2.67;;
12286;SDS011;6206;53.100;11.098;2022-09-09T11:30:33;3.63;;;1.58;;
12286;SDS011;6206;53.100;11.098;2022-09-09T11:33:12;4.07;;;1.50;;
12286;SDS011;6206;53.100;11.098;2022-09-09T11:35:58;4.53;;;1.83;;
12286;SDS011;6206;53.100;11.098;2022-09-09T11:38:39;7.47;;;1.75;;
12286;SDS011;6206;53.100;11.098;2022-09-09T11:41:11;3.58;;;1.40;;
12286;SDS011;6206;53.100;11.098;2022-09-09T11:43:40;4.43;;;1.40;;
12286;SDS011;6206;53.100;11.098;2022-09-09T11:46:08;6.47;;;1.95;;
12286;SDS011;6206;53.100;11.098;2022-09-09T11:48:37;3.50;;;1.80;;
12286;SDS011;6206;53.100;11.098;2022-09-09T11:51:08;4.07;;;1.67;;
12286;SDS011;6206;53.100;11.098;2022-09-09T11:53:48;2.70;;;1.60;;
12286;SDS011;6206;53.100;11.098;2022-09-09T11:56:24;2.28;;;1.50;;
12286;SDS011;6206;53.100;11.098;2022-09-09T11:58:54;5.35;;;1.75;;
12286;SDS011;6206;53.100;11.098;2022-09-09T12:01:26;3.33;;;1.77;;
12286;SDS011;6206;53.100;11.098;2022-09-09T12:04:01;3.33;;;1.80;;
12286;SDS011;6206;53.100;11.098;2022-09-09T12:06:54;3.83;;;1.92;;
12286;SDS011;6206;53.100;11.098;2022-09-09T12:09:27;3.83;;;2.00;;
12286;SDS011;6206;53.100;11.098;2022-09-09T12:12:06;4.07;;;1.63;;
12286;SDS011;6206;53.100;11.098;2022-09-09T12:14:54;4.70;;;1.55;;
12286;SDS011;6206;53.100;11.098;2022-09-09T12:17:24;4.68;;;1.75;;
12286;SDS011;6206;53.100;11.098;2022-09-09T12:19:59;2.42;;;1.27;;
12286;SDS011;6206;53.100;11.098;2022-09-09T12:22:33;3.30;;;1.45;;
12286;SDS011;6206;53.100;11.098;2022-09-09T12:25:07;2.22;;;1.60;;
12286;SDS011;6206;53.100;11.098;2022-09-09T12:27:43;2.53;;;1.60;;
12286;SDS011;6206;53.100;11.098;2022-09-09T12:30:16;4.07;;;1.50;;
12286;SDS011;6206;53.100;11.098;2022-09-09T12:32:44;2.60;;;1.60;;
12286;SDS011;6206;53.100;11.098;2022-09-09T12:35:11;4.03;;;2.22;;
12286;SDS011;6206;53.100;11.098;2022-09-09T12:37:42;2.78;;;1.73;;
12286;SDS011;6206;53.100;11.098;2022-09-09T12:40:20;2.83;;;1.50;;
12286;SDS011;6206;53.100;11.098;2022-09-09T12:42:48;5.47;;;1.60;;
12286;SDS011;6206;53.100;11.098;2022-09-09T12:45:17;4.25;;;1.75;;
12286;SDS011;6206;53.100;11.098;2022-09-09T12:47:45;4.47;;;1.52;;
12286;SDS011;6206;53.100;11.098;2022-09-09T12:50:16;1.95;;;1.52;;
12286;SDS011;6206;53.100;11.098;2022-09-09T12:52:46;3.20;;;1.50;;
12286;SDS011;6206;53.100;11.098;2022-09-09T12:55:16;3.35;;;1.67;;
12286;SDS011;6206;53.100;11.098;2022-09-09T12:57:48;7.55;;;1.33;;
12286;SDS011;6206;53.100;11.098;2022-09-09T13:00:17;4.30;;;2.08;;
12286;SDS011;6206;53.100;11.098;2022-09-09T13:02:46;2.97;;;1.52;;
12286;SDS011;6206;53.100;11.098;2022-09-09T13:05:17;4.28;;;1.88;;
12286;SDS011;6206;53.100;11.098;2022-09-09T13:07:45;4.50;;;1.60;;
12286;SDS011;6206;53.100;11.098;2022-09-09T13:10:13;3.47;;;1.77;;
12286;SDS011;6206;53.100;11.098;2022-09-09T13:12:41;2.63;;;1.50;;
12286;SDS011;6206;53.100;11.098;2022-09-09T13:15:12;3.33;;;1.67;;
12286;SDS011;6206;53.100;11.098;2022-09-09T13:27:51;6.30;;;3.58;;
12286;SDS011;6206;53.100;11.098;2022-09-09T13:30:24;6.32;;;1.80;;
12286;SDS011;6206;53.100;11.098;2022-09-09T13:33:01;5.20;;;2.28;;
12286;SDS011;6206;53.100;11.098;2022-09-09T13:37:59;4.32;;;2.10;;
12286;SDS011;6206;53.100;11.098;2022-09-09T13:40:33;5.90;;;2.72;;
12286;SDS011;6206;53.100;11.098;2022-09-09T14:32:11;2.75;;;2.40;;
12286;SDS011;6206;53.100;11.098;2022-09-09T14:34:38;4.55;;;3.10;;
12286;SDS011;6206;53.100;11.098;2022-09-09T14:37:06;4.47;;;3.00;;
12286;SDS011;6206;53.100;11.098;2022-09-09T14:39:33;3.03;;;2.70;;
12286;SDS011;6206;53.100;11.098;2022-09-09T23:25:17;4.65;;;2.92;;
12286;SDS011;6206;53.100;11.098;2022-09-09T23:27:44;5.07;;;3.42;;
12286;SDS011;6206;53.100;11.098;2022-09-09T23:30:14;7.23;;;3.77;;
12286;SDS011;6206;53.100;11.098;2022-09-09T23:32:40;4.97;;;3.57;;
12286;SDS011;6206;53.100;11.098;2022-09-09T23:35:10;5.20;;;4.05;;
12286;SDS011;6206;53.100;11.098;2022-09-09T23:37:37;5.57;;;3.83;;
12286;SDS011;6206;53.100;11.098;2022-09-09T23:40:04;6.30;;;3.60;;
12286;SDS011;6206;53.100;11.098;2022-09-09T23:42:32;7.25;;;3.72;;
12286;SDS011;6206;53.100;11.098;2022-09-09T23:44:59;5.05;;;3.45;;
12286;SDS011;6206;53.100;11.098;2022-09-09T23:47:27;6.13;;;3.25;;
12286;SDS011;6206;53.100;11.098;2022-09-09T23:49:53;6.88;;;3.53;;
12286;SDS011;6206;53.100;11.098;2022-09-09T23:52:20;5.60;;;3.35;;
12286;SDS011;6206;53.100;11.098;2022-09-09T23:54:49;5.00;;;3.10;;
12286;SDS011;6206;53.100;11.098;2022-09-09T23:57:15;5.30;;;3.30;;
12286;SDS011;6206;53.100;11.098;2022-09-09T23:59:42;3.20;;;2.90;;
